Time;durP1;ratioP1;P1;durP2;ratioP2;P2;SDS_P1;SDS_P2;PMS_P1;PMS_P2;Temp;Humidity;BMP_temperature;BMP_pressure;BME280_temperature;BME280_humidity;BME280_pressure;Samples;Min_cycle;Max_cycle;Signal;HPM_P1;HPM_P2
2021/09/23 00:02:06;;;;;;;15.15;8.73;;;;;;;;;;5018158;28;20017;-49
2021/09/23 00:04:34;;;;;;;14.60;9.45;;;;;;;;;;5017392;28;20037;-50
2021/09/23 00:07:00;;;;;;;9.65;7.65;;;;;;;;;;5016652;28;20036;-52
2021/09/23 00:09:26;;;;;;;16.33;10.30;;;;;;;;;;5017516;28;20037;-47
2021/09/23 00:11:53;;;;;;;16.27;10.63;;;;;;;;;;5017537;28;20021;-50
2021/09/23 00:14:19;;;;;;;20.45;13.55;;;;;;;;;;5017511;28;20086;-51
2021/09/23 00:16:47;;;;;;;18.63;10.88;;;;;;;;;;5018600;28;20025;-53
2021/09/23 00:19:13;;;;;;;13.63;9.07;;;;;;;;;;5052177;28;20099;-53
2021/09/23 00:21:39;;;;;;;12.02;8.40;;;;;;;;;;5047524;28;20041;-48
2021/09/23 00:24:10;;;;;;;11.13;7.90;;;;;;;;;;5050262;28;20064;-52
2021/09/23 00:26:36;;;;;;;10.98;8.57;;;;;;;;;;5049451;28;20046;-50
2021/09/23 00:29:04;;;;;;;15.27;9.02;;;;;;;;;;5048376;28;20025;-51
2021/09/23 00:31:31;;;;;;;18.73;11.10;;;;;;;;;;5048685;28;20108;-47
2021/09/23 00:33:59;;;;;;;16.80;9.30;;;;;;;;;;5049261;28;20131;-51
2021/09/23 00:36:25;;;;;;;14.95;10.02;;;;;;;;;;5049562;28;20067;-50
2021/09/23 00:38:54;;;;;;;12.95;9.10;;;;;;;;;;5048668;28;20073;-50
2021/09/23 00:41:22;;;;;;;15.00;9.30;;;;;;;;;;5049592;28;20025;-50
2021/09/23 00:43:50;;;;;;;16.02;10.32;;;;;;;;;;5048921;28;20021;-50
2021/09/23 00:46:16;;;;;;;18.65;10.93;;;;;;;;;;5050136;28;20059;-52
2021/09/23 00:48:45;;;;;;;15.95;9.82;;;;;;;;;;5048854;28;20063;-52
2021/09/23 00:51:12;;;;;;;13.50;8.95;;;;;;;;;;5049911;28;20086;-51
2021/09/23 00:53:39;;;;;;;13.68;10.80;;;;;;;;;;5047725;28;20029;-51
2021/09/23 00:56:07;;;;;;;14.95;9.38;;;;;;;;;;5052048;28;20049;-48
2021/09/23 00:58:33;;;;;;;17.48;11.88;;;;;;;;;;5053186;28;20055;-50
2021/09/23 01:00:59;;;;;;;16.70;10.38;;;;;;;;;;5053750;28;20052;-48
2021/09/23 01:03:25;;;;;;;14.35;9.75;;;;;;;;;;5053314;28;20401;-51
2021/09/23 01:05:51;;;;;;;15.40;9.95;;;;;;;;;;5052749;28;20083;-51
2021/09/23 01:08:17;;;;;;;14.63;10.50;;;;;;;;;;5053452;28;20027;-48
2021/09/23 01:10:43;;;;;;;20.42;12.40;;;;;;;;;;5052671;28;20025;-47
2021/09/23 01:13:10;;;;;;;13.85;10.65;;;;;;;;;;5053429;28;20087;-53
2021/09/23 01:15:36;;;;;;;19.63;12.60;;;;;;;;;;5053326;28;20504;-48
2021/09/23 01:18:02;;;;;;;22.10;13.75;;;;;;;;;;5052383;28;20029;-48
2021/09/23 01:20:28;;;;;;;12.75;10.20;;;;;;;;;;5053413;28;20146;-50
2021/09/23 01:22:54;;;;;;;13.18;8.32;;;;;;;;;;5052926;28;20078;-48
2021/09/23 01:25:23;;;;;;;14.20;8.80;;;;;;;;;;5056117;28;20400;-50
2021/09/23 01:27:49;;;;;;;12.00;8.48;;;;;;;;;;5056259;28;20022;-47
2021/09/23 01:30:16;;;;;;;24.58;13.65;;;;;;;;;;5056328;28;20025;-51
2021/09/23 01:32:45;;;;;;;19.75;11.00;;;;;;;;;;5056206;28;20119;-50
2021/09/23 01:35:11;;;;;;;14.40;9.77;;;;;;;;;;5056404;28;20116;-50
2021/09/23 01:37:40;;;;;;;11.43;8.60;;;;;;;;;;5056267;28;20432;-51
2021/09/23 01:40:08;;;;;;;15.73;9.30;;;;;;;;;;5056096;28;20024;-50
2021/09/23 01:42:34;;;;;;;13.52;9.40;;;;;;;;;;5056169;28;20076;-50
2021/09/23 01:45:02;;;;;;;14.38;9.10;;;;;;;;;;5055991;28;20025;-50
2021/09/23 01:47:28;;;;;;;11.48;8.55;;;;;;;;;;5056080;28;20575;-47
2021/09/23 01:49:54;;;;;;;12.93;9.05;;;;;;;;;;5055728;28;20106;-51
2021/09/23 01:52:20;;;;;;;14.50;8.68;;;;;;;;;;5055856;28;20021;-53
2021/09/23 01:54:48;;;;;;;14.90;10.05;;;;;;;;;;5056245;28;20029;-52
2021/09/23 01:57:15;;;;;;;14.85;8.40;;;;;;;;;;5056045;28;20040;-52
2021/09/23 01:59:41;;;;;;;14.52;9.52;;;;;;;;;;5055815;28;20037;-52
2021/09/23 02:02:07;;;;;;;14.07;9.68;;;;;;;;;;5055871;28;20021;-52
2021/09/23 02:04:33;;;;;;;12.27;8.60;;;;;;;;;;5055642;28;20477;-51
2021/09/23 02:06:59;;;;;;;12.23;9.45;;;;;;;;;;5054605;28;20029;-51
2021/09/23 02:09:25;;;;;;;12.88;8.57;;;;;;;;;;5055827;28;20054;-50
2021/09/23 02:11:51;;;;;;;13.68;9.13;;;;;;;;;;5056081;28;20408;-50
2021/09/23 02:14:19;;;;;;;11.43;9.30;;;;;;;;;;5055606;28;20032;-50
2021/09/23 02:16:46;;;;;;;11.63;8.48;;;;;;;;;;5055322;28;20170;-52
2021/09/23 02:19:12;;;;;;;11.32;8.40;;;;;;;;;;5055266;28;20116;-50
2021/09/23 02:21:38;;;;;;;13.98;8.68;;;;;;;;;;5055131;28;20025;-51
2021/09/23 02:24:04;;;;;;;12.63;8.23;;;;;;;;;;5055213;28;20044;-50
2021/09/23 02:26:32;;;;;;;13.65;8.50;;;;;;;;;;5055185;28;20025;-50
2021/09/23 02:28:58;;;;;;;11.85;8.98;;;;;;;;;;5054104;28;20381;-53
2021/09/23 02:31:27;;;;;;;11.52;8.73;;;;;;;;;;5055284;28;20393;-52
2021/09/23 02:33:55;;;;;;;12.45;8.43;;;;;;;;;;5054924;28;20036;-49
2021/09/23 02:36:21;;;;;;;11.10;8.25;;;;;;;;;;5055106;28;20029;-50
2021/09/23 02:38:47;;;;;;;11.13;8.23;;;;;;;;;;5055042;28;20084;-50
2021/09/23 02:41:13;;;;;;;13.35;8.25;;;;;;;;;;5055146;28;20481;-50
2021/09/23 02:43:39;;;;;;;12.00;8.02;;;;;;;;;;5055061;28;20032;-49
2021/09/23 02:46:06;;;;;;;11.63;7.70;;;;;;;;;;5054950;28;20033;-50
2021/09/23 02:48:32;;;;;;;10.73;7.78;;;;;;;;;;5055017;28;20036;-54
2021/09/23 02:50:58;;;;;;;13.60;7.47;;;;;;;;;;5055208;28;20110;-52
2021/09/23 02:53:24;;;;;;;15.07;8.13;;;;;;;;;;5055030;28;20100;-51
2021/09/23 02:55:50;;;;;;;12.13;8.05;;;;;;;;;;5055224;28;20028;-50
2021/09/23 02:58:16;;;;;;;12.50;7.57;;;;;;;;;;5054807;28;20033;-51
2021/09/23 03:00:42;;;;;;;11.68;7.68;;;;;;;;;;5054823;28;20115;-52
2021/09/23 03:03:08;;;;;;;12.73;7.18;;;;;;;;;;5054606;28;20025;-52
2021/09/23 03:05:35;;;;;;;10.32;7.03;;;;;;;;;;5054636;28;20102;-49
2021/09/23 03:08:04;;;;;;;13.85;7.45;;;;;;;;;;5054740;28;20025;-52
2021/09/23 03:10:30;;;;;;;9.98;7.03;;;;;;;;;;5054561;28;20025;-51
2021/09/23 03:12:56;;;;;;;10.88;7.90;;;;;;;;;;5053410;28;20393;-50
2021/09/23 03:15:26;;;;;;;11.85;8.07;;;;;;;;;;5054580;28;20395;-53
2021/09/23 03:17:53;;;;;;;11.43;5.53;;;;;;;;;;5054243;28;20139;-52
2021/09/23 03:20:22;;;;;;;9.23;5.97;;;;;;;;;;5054267;28;20033;-49
2021/09/23 03:22:49;;;;;;;7.05;4.78;;;;;;;;;;5054257;28;20060;-50
2021/09/23 03:25:15;;;;;;;9.93;4.25;;;;;;;;;;5054085;28;20048;-51
2021/09/23 03:27:42;;;;;;;7.90;3.85;;;;;;;;;;5054298;28;20392;-51
2021/09/23 03:30:08;;;;;;;5.75;3.20;;;;;;;;;;5054143;28;20436;-51
2021/09/23 03:32:34;;;;;;;6.60;4.03;;;;;;;;;;5054240;28;20568;-51
2021/09/23 03:35:00;;;;;;;9.60;4.63;;;;;;;;;;5053792;28;20086;-52
2021/09/23 03:37:27;;;;;;;6.95;4.32;;;;;;;;;;5054034;28;20026;-52
2021/09/23 03:39:53;;;;;;;10.13;3.83;;;;;;;;;;5053950;28;20036;-49
2021/09/23 03:42:19;;;;;;;9.27;4.20;;;;;;;;;;5054017;28;20017;-50
2021/09/23 03:44:46;;;;;;;12.73;4.65;;;;;;;;;;5053961;28;20044;-50
2021/09/23 03:47:12;;;;;;;10.60;4.97;;;;;;;;;;5053893;28;20397;-50
2021/09/23 03:49:38;;;;;;;6.07;4.47;;;;;;;;;;5053837;28;20112;-51
2021/09/23 03:52:05;;;;;;;7.30;4.30;;;;;;;;;;5053673;28;20381;-49
2021/09/23 03:54:31;;;;;;;7.55;5.28;;;;;;;;;;5053799;28;20025;-51
2021/09/23 03:56:59;;;;;;;9.45;5.47;;;;;;;;;;5053933;28;20087;-53
2021/09/23 03:59:25;;;;;;;9.52;6.07;;;;;;;;;;5053533;28;20029;-50
2021/09/23 04:01:51;;;;;;;9.80;5.50;;;;;;;;;;5053627;28;20035;-52
2021/09/23 04:04:18;;;;;;;10.02;5.70;;;;;;;;;;5053259;28;20037;-51
2021/09/23 04:06:44;;;;;;;6.85;5.40;;;;;;;;;;5053408;28;20017;-52
2021/09/23 04:09:11;;;;;;;15.25;6.53;;;;;;;;;;5053489;28;20025;-53
2021/09/23 04:11:38;;;;;;;9.57;6.18;;;;;;;;;;5053443;28;20027;-52
2021/09/23 04:14:05;;;;;;;10.00;5.90;;;;;;;;;;5053345;28;20032;-51
2021/09/23 04:16:31;;;;;;;12.75;6.40;;;;;;;;;;5053316;28;20489;-50
2021/09/23 04:18:57;;;;;;;11.35;7.00;;;;;;;;;;5053258;28;20059;-50
2021/09/23 04:21:23;;;;;;;9.45;6.60;;;;;;;;;;5053223;28;20108;-52
2021/09/23 04:23:49;;;;;;;12.77;6.82;;;;;;;;;;5053046;28;20060;-52
2021/09/23 04:26:15;;;;;;;11.55;6.97;;;;;;;;;;5053358;28;20076;-52
2021/09/23 04:28:41;;;;;;;12.80;7.20;;;;;;;;;;5052965;28;20021;-51
2021/09/23 04:31:07;;;;;;;12.70;7.57;;;;;;;;;;5052524;28;20033;-51
2021/09/23 04:33:36;;;;;;;12.13;8.05;;;;;;;;;;5053006;28;20025;-52
2021/09/23 04:36:02;;;;;;;17.98;9.25;;;;;;;;;;5053310;28;20071;-49
2021/09/23 04:38:28;;;;;;;19.10;9.32;;;;;;;;;;5052872;28;20071;-52
2021/09/23 04:40:57;;;;;;;15.13;8.93;;;;;;;;;;5053162;28;20029;-52
2021/09/23 04:43:23;;;;;;;17.02;9.15;;;;;;;;;;5052972;28;20040;-52
2021/09/23 04:45:49;;;;;;;16.65;8.70;;;;;;;;;;5052958;28;20056;-50
2021/09/23 04:48:15;;;;;;;21.40;8.95;;;;;;;;;;5053105;28;20377;-52
2021/09/23 04:50:41;;;;;;;25.92;11.43;;;;;;;;;;5052782;28;20480;-50
2021/09/23 04:53:07;;;;;;;24.55;10.98;;;;;;;;;;5053035;28;20447;-51
2021/09/23 04:55:33;;;;;;;30.30;9.85;;;;;;;;;;5052957;28;20025;-51
2021/09/23 04:58:01;;;;;;;33.60;14.98;;;;;;;;;;5052939;28;20021;-56
2021/09/23 05:00:27;;;;;;;34.05;13.10;;;;;;;;;;5052575;28;20120;-54
2021/09/23 05:02:55;;;;;;;62.55;21.20;;;;;;;;;;5051506;28;20025;-50
2021/09/23 05:05:21;;;;;;;103.47;29.27;;;;;;;;;;5052671;28;20033;-54
2021/09/23 05:07:47;;;;;;;192.13;51.60;;;;;;;;;;5052515;28;20509;-57
2021/09/23 05:10:15;;;;;;;151.20;30.30;;;;;;;;;;5052625;28;20465;-53
2021/09/23 05:12:44;;;;;;;132.25;25.63;;;;;;;;;;5051565;28;20400;-49
2021/09/23 05:15:12;;;;;;;134.93;32.10;;;;;;;;;;5052553;28;20021;-55
2021/09/23 05:17:40;;;;;;;146.68;31.90;;;;;;;;;;5052355;28;20134;-55
2021/09/23 05:20:07;;;;;;;152.57;32.28;;;;;;;;;;5052305;28;20033;-56
2021/09/23 05:22:33;;;;;;;51.00;11.77;;;;;;;;;;5052571;28;20021;-58
2021/09/23 05:25:00;;;;;;;58.13;15.45;;;;;;;;;;5052263;28;20049;-54
2021/09/23 05:27:26;;;;;;;37.15;12.05;;;;;;;;;;5052533;28;20021;-54
2021/09/23 05:29:52;;;;;;;25.27;8.68;;;;;;;;;;5052426;28;20500;-54
2021/09/23 05:32:21;;;;;;;37.88;12.82;;;;;;;;;;5052490;28;20032;-57
2021/09/23 05:34:47;;;;;;;17.45;7.97;;;;;;;;;;5048447;28;20028;-56
2021/09/23 05:37:13;;;;;;;26.98;8.75;;;;;;;;;;5052450;28;20469;-56
2021/09/23 05:39:40;;;;;;;27.00;12.50;;;;;;;;;;5052525;28;20079;-56
2021/09/23 05:42:06;;;;;;;19.52;8.15;;;;;;;;;;5054513;28;20040;-55
2021/09/23 05:44:32;;;;;;;17.35;7.93;;;;;;;;;;5056253;28;20036;-57
2021/09/23 05:46:58;;;;;;;24.25;10.75;;;;;;;;;;5056208;28;20097;-56
2021/09/23 05:49:24;;;;;;;18.80;8.02;;;;;;;;;;5056227;28;20444;-59
2021/09/23 05:51:51;;;;;;;12.75;6.50;;;;;;;;;;5056251;28;20028;-57
2021/09/23 05:54:17;;;;;;;12.00;6.53;;;;;;;;;;5055985;28;20033;-56
2021/09/23 05:56:44;;;;;;;12.43;6.20;;;;;;;;;;5056201;28;20464;-52
2021/09/23 05:59:10;;;;;;;19.52;7.22;;;;;;;;;;5055906;28;20529;-53
2021/09/23 06:01:37;;;;;;;11.38;6.70;;;;;;;;;;5055875;28;20476;-50
2021/09/23 06:04:03;;;;;;;11.27;6.53;;;;;;;;;;5055726;28;20021;-58
2021/09/23 06:06:29;;;;;;;18.17;7.57;;;;;;;;;;5055748;28;20488;-56
2021/09/23 06:08:55;;;;;;;13.80;7.07;;;;;;;;;;5055739;28;20060;-55
2021/09/23 06:11:21;;;;;;;22.27;10.38;;;;;;;;;;5055861;28;20530;-52
2021/09/23 06:13:47;;;;;;;30.10;15.63;;;;;;;;;;5055687;28;20029;-51
2021/09/23 06:16:14;;;;;;;27.00;15.13;;;;;;;;;;5055844;28;20021;-56
2021/09/23 06:18:40;;;;;;;18.63;9.82;;;;;;;;;;5055443;28;20099;-56
2021/09/23 06:21:07;;;;;;;16.25;10.40;;;;;;;;;;5055625;28;20036;-58
2021/09/23 06:23:34;;;;;;;15.93;8.55;;;;;;;;;;5055484;28;20076;-57
2021/09/23 06:26:00;;;;;;;18.05;10.60;;;;;;;;;;5055307;28;20025;-55
2021/09/23 06:28:26;;;;;;;16.80;8.70;;;;;;;;;;5055453;28;20028;-53
2021/09/23 06:30:52;;;;;;;20.10;9.40;;;;;;;;;;5055352;28;20036;-58
2021/09/23 06:33:19;;;;;;;16.52;9.45;;;;;;;;;;5055354;28;20540;-56
2021/09/23 06:35:45;;;;;;;16.67;8.55;;;;;;;;;;5055306;28;20040;-51
2021/09/23 06:38:11;;;;;;;20.27;11.93;;;;;;;;;;5055356;28;20051;-58
2021/09/23 06:40:38;;;;;;;36.33;16.98;;;;;;;;;;5055348;28;20037;-56
2021/09/23 06:43:04;;;;;;;22.48;11.55;;;;;;;;;;5055460;28;20393;-57
2021/09/23 06:45:31;;;;;;;36.47;16.85;;;;;;;;;;5055376;28;20025;-58
2021/09/23 06:47:57;;;;;;;34.55;16.70;;;;;;;;;;5055249;28;20499;-57
2021/09/23 06:50:23;;;;;;;35.08;18.20;;;;;;;;;;5055456;28;20025;-54
2021/09/23 06:52:49;;;;;;;18.30;11.52;;;;;;;;;;5054557;28;20017;-54
2021/09/23 06:55:15;;;;;;;19.38;10.77;;;;;;;;;;5055058;28;20021;-54
2021/09/23 06:57:41;;;;;;;27.00;13.77;;;;;;;;;;5055238;28;20021;-50
2021/09/23 07:00:08;;;;;;;20.65;12.25;;;;;;;;;;5054990;28;20178;-54
2021/09/23 07:02:34;;;;;;;31.55;16.90;;;;;;;;;;5054923;28;20055;-58
2021/09/23 07:05:00;;;;;;;41.00;21.92;;;;;;;;;;5054768;28;20060;-58
2021/09/23 07:07:26;;;;;;;18.27;10.15;;;;;;;;;;5054806;28;20029;-59
2021/09/23 07:09:53;;;;;;;21.33;11.63;;;;;;;;;;5054965;28;20393;-58
2021/09/23 07:12:19;;;;;;;24.50;13.38;;;;;;;;;;5054770;28;20025;-57
2021/09/23 07:14:48;;;;;;;15.45;10.82;;;;;;;;;;5054787;28;20025;-59
2021/09/23 07:17:14;;;;;;;21.23;11.75;;;;;;;;;;5054914;28;20017;-60
2021/09/23 07:19:40;;;;;;;15.00;10.20;;;;;;;;;;5054541;28;20082;-60
2021/09/23 07:22:08;;;;;;;14.90;9.02;;;;;;;;;;5054569;28;20112;-61
2021/09/23 07:24:35;;;;;;;17.80;8.77;;;;;;;;;;5053304;28;20098;-59
2021/09/23 07:27:01;;;;;;;15.07;10.80;;;;;;;;;;5054613;28;20461;-59
2021/09/23 07:29:27;;;;;;;22.15;12.95;;;;;;;;;;5054500;28;20495;-60
2021/09/23 07:31:56;;;;;;;16.45;10.65;;;;;;;;;;5054326;28;20134;-59
2021/09/23 07:34:24;;;;;;;13.48;9.57;;;;;;;;;;5054186;28;20055;-58
2021/09/23 07:36:55;;;;;;;20.88;13.55;;;;;;;;;;5054396;28;20033;-58
2021/09/23 07:39:21;;;;;;;19.23;11.73;;;;;;;;;;5052914;28;20158;-60
2021/09/23 07:41:50;;;;;;;20.27;12.75;;;;;;;;;;5054468;28;20018;-57
2021/09/23 07:44:20;;;;;;;42.50;21.15;;;;;;;;;;5054176;28;20047;-58
2021/09/23 07:46:46;;;;;;;25.35;16.17;;;;;;;;;;5054198;28;20082;-54
2021/09/23 07:49:13;;;;;;;21.08;14.25;;;;;;;;;;5054337;28;20492;-57
2021/09/23 07:51:39;;;;;;;16.77;11.68;;;;;;;;;;5054450;28;20029;-59
2021/09/23 07:54:05;;;;;;;21.60;12.85;;;;;;;;;;5054115;28;20076;-60
2021/09/23 07:56:31;;;;;;;14.20;10.77;;;;;;;;;;5054040;28;20056;-55
2021/09/23 07:58:57;;;;;;;19.15;13.15;;;;;;;;;;5054154;28;20035;-55
2021/09/23 08:01:23;;;;;;;14.45;11.02;;;;;;;;;;5053919;28;20029;-53
2021/09/23 08:03:50;;;;;;;25.42;16.02;;;;;;;;;;5053709;28;20056;-56
2021/09/23 08:06:16;;;;;;;37.92;22.35;;;;;;;;;;5052856;28;20056;-59
2021/09/23 08:08:42;;;;;;;28.00;18.23;;;;;;;;;;5053640;28;20573;-58
2021/09/23 08:11:08;;;;;;;75.65;38.33;;;;;;;;;;5054015;28;20025;-49
2021/09/23 08:13:34;;;;;;;40.08;23.88;;;;;;;;;;5053862;28;20029;-58
2021/09/23 08:16:01;;;;;;;18.83;12.40;;;;;;;;;;5053964;28;20025;-53
2021/09/23 08:18:27;;;;;;;24.00;14.93;;;;;;;;;;5053572;28;20114;-60
2021/09/23 08:20:53;;;;;;;15.68;9.95;;;;;;;;;;5053699;28;20036;-57
2021/09/23 08:23:19;;;;;;;12.02;8.80;;;;;;;;;;5053389;28;20033;-54
2021/09/23 08:25:50;;;;;;;11.80;9.93;;;;;;;;;;5053615;28;20429;-49
2021/09/23 08:28:16;;;;;;;22.87;12.43;;;;;;;;;;5053523;28;20028;-54
2021/09/23 08:30:46;;;;;;;45.58;24.88;;;;;;;;;;5053303;28;20067;-63
2021/09/23 08:33:12;;;;;;;31.92;19.23;;;;;;;;;;5053089;28;20036;-53
2021/09/23 08:35:40;;;;;;;62.38;37.55;;;;;;;;;;5053286;28;20032;-51
2021/09/23 08:38:07;;;;;;;25.60;16.50;;;;;;;;;;5053298;28;20523;-60
2021/09/23 08:40:33;;;;;;;35.58;20.92;;;;;;;;;;5053020;28;20079;-58
2021/09/23 08:42:59;;;;;;;94.90;46.17;;;;;;;;;;5053219;28;20021;-51
2021/09/23 08:45:26;;;;;;;59.17;34.13;;;;;;;;;;5053204;28;20033;-56
2021/09/23 08:47:52;;;;;;;79.20;45.42;;;;;;;;;;5053164;28;20025;-51
2021/09/23 08:50:18;;;;;;;47.47;28.38;;;;;;;;;;5053181;28;20488;-60
2021/09/23 08:52:44;;;;;;;141.70;72.55;;;;;;;;;;5053091;28;20032;-51
2021/09/23 08:55:21;;;;;;;47.90;25.67;;;;;;;;;;5053098;28;20082;-60
2021/09/23 08:57:47;;;;;;;68.82;29.98;;;;;;;;;;5053289;28;20501;-62
2021/09/23 09:00:14;;;;;;;71.28;31.70;;;;;;;;;;5053223;28;20078;-49
2021/09/23 09:02:40;;;;;;;31.45;16.70;;;;;;;;;;5053012;28;20021;-63
2021/09/23 09:05:11;;;;;;;25.77;14.93;;;;;;;;;;5053424;28;20039;-59
2021/09/23 09:07:39;;;;;;;18.20;12.63;;;;;;;;;;5053045;28;20155;-55
2021/09/23 09:10:07;;;;;;;15.10;11.43;;;;;;;;;;5053349;28;20477;-57
2021/09/23 09:12:33;;;;;;;18.70;10.85;;;;;;;;;;5053322;28;20167;-53
2021/09/23 09:15:02;;;;;;;13.55;9.20;;;;;;;;;;5052916;28;20025;-60
2021/09/23 09:17:34;;;;;;;12.95;10.13;;;;;;;;;;5055734;28;20028;-48
2021/09/23 09:20:02;;;;;;;;;;;;;;;;;;5057553;28;20029;-55
2021/09/23 09:22:32;;;;;;;21.50;13.55;;;;;;;;;;5056961;28;20418;-56
2021/09/23 09:25:03;;;;;;;27.73;17.13;;;;;;;;;;5056584;28;20045;-60
2021/09/23 09:27:32;;;;;;;29.90;18.38;;;;;;;;;;5056932;28;20112;-60
2021/09/23 09:29:59;;;;;;;11.93;9.25;;;;;;;;;;5056656;28;20469;-54
2021/09/23 09:32:39;;;;;;;31.17;18.17;;;;;;;;;;5056836;28;20025;-60
2021/09/23 09:35:08;;;;;;;33.38;18.77;;;;;;;;;;5056809;28;20033;-61
2021/09/23 09:37:34;;;;;;;16.45;10.15;;;;;;;;;;5057052;28;20047;-58
2021/09/23 09:40:01;;;;;;;17.55;12.57;;;;;;;;;;5056410;28;20031;-60
2021/09/23 09:42:28;;;;;;;11.77;9.30;;;;;;;;;;5056431;28;20056;-54
2021/09/23 09:44:55;;;;;;;11.30;8.27;;;;;;;;;;5056757;28;20017;-59
2021/09/23 09:47:33;;;;;;;13.05;8.95;;;;;;;;;;5056475;28;20044;-61
2021/09/23 09:50:15;;;;;;;11.70;8.48;;;;;;;;;;5056562;28;20029;-65
2021/09/23 09:52:47;;;;;;;11.52;8.73;;;;;;;;;;5056612;28;20494;-61
2021/09/23 09:55:13;;;;;;;19.38;12.20;;;;;;;;;;5056314;28;20484;-61
2021/09/23 09:57:49;;;;;;;10.75;8.32;;;;;;;;;;5054950;28;20060;-63
2021/09/23 10:00:16;;;;;;;32.35;18.13;;;;;;;;;;5056258;28;20037;-63
2021/09/23 10:02:47;;;;;;;46.88;26.55;;;;;;;;;;5056102;28;20028;-64
2021/09/23 10:05:16;;;;;;;17.92;10.93;;;;;;;;;;5056108;28;20060;-64
2021/09/23 10:07:47;;;;;;;12.25;8.75;;;;;;;;;;5056415;28;20025;-65
2021/09/23 10:10:14;;;;;;;8.30;7.18;;;;;;;;;;5056126;28;20021;-64
2021/09/23 10:12:43;;;;;;;13.20;9.10;;;;;;;;;;5056148;28;20025;-65
2021/09/23 10:15:12;;;;;;;13.63;8.25;;;;;;;;;;5056077;28;20051;-63
2021/09/23 10:17:39;;;;;;;10.27;7.60;;;;;;;;;;5055782;28;20024;-62
2021/09/23 10:20:08;;;;;;;17.08;11.45;;;;;;;;;;5055665;28;20079;-63
2021/09/23 10:22:36;;;;;;;23.38;13.40;;;;;;;;;;5055722;28;20017;-60
2021/09/23 10:25:06;;;;;;;28.73;17.65;;;;;;;;;;5055527;28;20182;-66
2021/09/23 10:30:46;;;;;;;22.83;13.93;;;;;;;;;;5033527;28;20053;-57
2021/09/23 10:33:14;;;;;;;15.40;10.75;;;;;;;;;;5033430;28;20034;-61
2021/09/23 10:35:41;;;;;;;15.32;10.93;;;;;;;;;;5033617;28;20049;-58
2021/09/23 10:38:08;;;;;;;15.18;10.93;;;;;;;;;;5033504;28;20449;-62
2021/09/23 10:40:36;;;;;;;11.05;8.50;;;;;;;;;;5033381;28;20041;-59
2021/09/23 10:43:07;;;;;;;15.55;10.57;;;;;;;;;;5033320;28;20096;-53
2021/09/23 10:45:33;;;;;;;;;;;;;;;;;;5033627;28;20068;-53
2021/09/23 10:48:03;;;;;;;10.45;8.27;;;;;;;;;;5033316;28;20016;-56
2021/09/23 10:50:31;;;;;;;8.13;6.75;;;;;;;;;;5033215;28;20033;-57
2021/09/23 10:52:57;;;;;;;12.90;9.18;;;;;;;;;;5033216;28;20033;-57
2021/09/23 10:55:27;;;;;;;10.07;7.35;;;;;;;;;;5033135;28;20036;-57
2021/09/23 10:57:54;;;;;;;8.52;6.18;;;;;;;;;;5033273;28;20552;-58
2021/09/23 11:00:28;;;;;;;32.67;19.13;;;;;;;;;;5033388;28;20032;-57
2021/09/23 11:02:58;;;;;;;29.42;16.17;;;;;;;;;;5054833;28;20509;-58
2021/09/23 11:05:25;;;;;;;23.73;15.90;;;;;;;;;;5055120;28;20051;-54
2021/09/23 11:07:52;;;;;;;14.20;10.00;;;;;;;;;;5054861;28;20112;-59
2021/09/23 11:10:23;;;;;;;9.25;6.85;;;;;;;;;;5055205;28;20025;-58
2021/09/23 11:12:51;;;;;;;13.85;9.93;;;;;;;;;;5054836;28;20477;-59
2021/09/23 11:15:19;;;;;;;7.35;6.38;;;;;;;;;;5055077;28;20087;-58
2021/09/23 11:17:46;;;;;;;9.43;6.38;;;;;;;;;;5054838;28;20044;-59
2021/09/23 11:20:20;;;;;;;6.80;5.13;;;;;;;;;;5054852;28;20056;-61
2021/09/23 11:22:48;;;;;;;9.43;6.05;;;;;;;;;;5054711;28;20521;-58
2021/09/23 11:25:16;;;;;;;9.70;6.20;;;;;;;;;;5054482;28;20049;-58
2021/09/23 11:27:42;;;;;;;8.35;6.72;;;;;;;;;;5054480;28;20052;-58
2021/09/23 11:30:10;;;;;;;8.68;6.35;;;;;;;;;;5054375;28;20385;-59
2021/09/23 11:32:45;;;;;;;20.20;11.35;;;;;;;;;;5054581;28;20029;-56
2021/09/23 11:35:14;;;;;;;16.92;10.98;;;;;;;;;;5053059;28;20033;-57
2021/09/23 11:37:40;;;;;;;26.33;17.70;;;;;;;;;;5054375;28;20051;-56
2021/09/23 11:40:07;;;;;;;16.02;10.82;;;;;;;;;;5054384;28;20028;-59
2021/09/23 11:42:38;;;;;;;10.68;6.85;;;;;;;;;;5054704;28;20021;-59
2021/09/23 11:45:05;;;;;;;10.00;6.97;;;;;;;;;;5054498;28;20046;-59
2021/09/23 11:47:32;;;;;;;11.63;6.57;;;;;;;;;;5054117;28;20083;-58
2021/09/23 11:50:03;;;;;;;8.38;6.45;;;;;;;;;;5054028;28;20032;-55
2021/09/23 11:52:30;;;;;;;10.95;7.22;;;;;;;;;;5054149;28;20517;-56
2021/09/23 11:54:59;;;;;;;12.45;8.13;;;;;;;;;;5053821;28;20029;-58
2021/09/23 11:57:26;;;;;;;11.73;7.40;;;;;;;;;;5053772;28;20028;-55
2021/09/23 11:59:56;;;;;;;11.07;7.82;;;;;;;;;;5053948;28;20036;-53
2021/09/23 12:02:22;;;;;;;13.07;7.82;;;;;;;;;;5053989;28;20067;-56
2021/09/23 12:04:55;;;;;;;46.38;21.48;;;;;;;;;;5054020;28;20029;-56
2021/09/23 12:07:31;;;;;;;33.30;16.40;;;;;;;;;;5053762;28;20029;-57
2021/09/23 12:10:23;;;;;;;13.13;7.28;;;;;;;;;;5053809;28;20055;-55
2021/09/23 12:12:59;;;;;;;8.30;6.07;;;;;;;;;;5051735;28;20079;-54
2021/09/23 12:15:28;;;;;;;6.35;5.28;;;;;;;;;;5053732;28;20029;-58
2021/09/23 12:18:02;;;;;;;8.50;5.72;;;;;;;;;;5053670;28;20416;-60
2021/09/23 12:20:42;;;;;;;9.07;5.50;;;;;;;;;;5053674;28;20033;-53
2021/09/23 12:23:27;;;;;;;8.95;5.05;;;;;;;;;;5053474;28;20029;-48
2021/09/23 12:26:03;;;;;;;11.55;5.22;;;;;;;;;;5051097;28;20119;-54
2021/09/23 12:28:30;;;;;;;7.95;4.43;;;;;;;;;;5052696;28;20033;-54
2021/09/23 12:31:03;;;;;;;9.55;5.05;;;;;;;;;;5053323;28;20028;-60
2021/09/23 12:33:29;;;;;;;55.83;29.58;;;;;;;;;;5053356;28;20025;-64
2021/09/23 12:36:09;;;;;;;28.60;18.00;;;;;;;;;;5052228;28;20029;-63
2021/09/23 12:38:37;;;;;;;21.85;12.32;;;;;;;;;;5053204;28;20116;-58
2021/09/23 12:41:17;;;;;;;20.42;10.95;;;;;;;;;;5053137;28;20067;-58
2021/09/23 12:43:44;;;;;;;9.25;6.15;;;;;;;;;;5053312;28;20043;-57
2021/09/23 12:46:13;;;;;;;8.32;5.40;;;;;;;;;;5053378;28;20031;-58
2021/09/23 12:48:51;;;;;;;11.38;6.97;;;;;;;;;;5053174;28;20017;-58
2021/09/23 12:51:34;;;;;;;22.13;6.28;;;;;;;;;;5052809;28;20036;-59
2021/09/23 12:54:20;;;;;;;8.40;4.93;;;;;;;;;;5053136;28;20359;-59
2021/09/23 12:56:47;;;;;;;28.05;6.32;;;;;;;;;;5052979;28;20021;-54
2021/09/23 12:59:17;;;;;;;18.77;6.40;;;;;;;;;;5053086;28;20025;-60
2021/09/23 13:01:43;;;;;;;13.02;5.60;;;;;;;;;;5052954;28;20119;-59
2021/09/23 13:04:19;;;;;;;12.32;4.18;;;;;;;;;;5052675;28;20419;-52
2021/09/23 13:06:45;;;;;;;42.38;17.55;;;;;;;;;;5053480;28;20084;-49
2021/09/23 13:09:11;;;;;;;72.03;28.05;;;;;;;;;;5052948;28;20021;-56
2021/09/23 13:11:38;;;;;;;41.65;15.88;;;;;;;;;;5053097;28;20029;-61
2021/09/23 13:14:24;;;;;;;43.33;16.17;;;;;;;;;;5053027;28;20508;-60
2021/09/23 13:16:52;;;;;;;33.58;14.20;;;;;;;;;;5052873;28;20028;-55
2021/09/23 13:19:18;;;;;;;18.83;10.10;;;;;;;;;;5053129;28;20036;-51
2021/09/23 13:21:45;;;;;;;10.27;6.50;;;;;;;;;;5052916;28;20120;-57
2021/09/23 13:24:12;;;;;;;10.90;5.55;;;;;;;;;;5052825;28;20488;-58
2021/09/23 13:26:44;;;;;;;8.82;6.35;;;;;;;;;;5052887;28;20032;-59
2021/09/23 13:29:10;;;;;;;12.95;6.85;;;;;;;;;;5052965;28;20551;-54
2021/09/23 13:31:37;;;;;;;16.00;7.78;;;;;;;;;;5052274;28;20024;-51
2021/09/23 13:34:06;;;;;;;30.45;14.43;;;;;;;;;;5051494;28;20029;-52
2021/09/23 13:36:32;;;;;;;9.95;6.00;;;;;;;;;;5051526;28;20535;-58
2021/09/23 13:38:58;;;;;;;13.82;7.97;;;;;;;;;;5051373;28;20031;-60
2021/09/23 13:41:25;;;;;;;12.02;6.70;;;;;;;;;;5051295;28;20095;-51
2021/09/23 13:43:51;;;;;;;20.85;10.80;;;;;;;;;;5048801;28;20017;-49
2021/09/23 13:46:18;;;;;;;147.02;78.47;;;;;;;;;;5051373;28;20096;-54
2021/09/23 13:48:44;;;;;;;67.80;21.55;;;;;;;;;;5052267;28;20043;-61
2021/09/23 13:51:14;;;;;;;48.53;13.55;;;;;;;;;;5052153;28;20025;-64
2021/09/23 13:53:40;;;;;;;18.80;9.57;;;;;;;;;;5052217;28;20071;-61
2021/09/23 13:56:06;;;;;;;14.00;7.72;;;;;;;;;;5050854;28;20033;-57
2021/09/23 13:58:34;;;;;;;8.43;5.50;;;;;;;;;;5052090;28;20091;-58
2021/09/23 14:01:02;;;;;;;7.10;4.50;;;;;;;;;;5051985;28;20051;-59
2021/09/23 14:03:33;;;;;;;21.83;14.38;;;;;;;;;;5052909;28;20032;-59
2021/09/23 14:05:59;;;;;;;7.65;4.63;;;;;;;;;;5055593;28;20480;-58
2021/09/23 14:08:27;;;;;;;23.88;14.93;;;;;;;;;;5055396;28;20388;-58
2021/09/23 14:10:54;;;;;;;12.85;8.10;;;;;;;;;;5051942;28;20041;-56
2021/09/23 14:13:21;;;;;;;21.23;12.30;;;;;;;;;;5055730;28;20029;-59
2021/09/23 14:15:49;;;;;;;27.35;16.08;;;;;;;;;;5055790;28;20036;-57
2021/09/23 14:18:15;;;;;;;19.45;11.80;;;;;;;;;;5055916;28;20017;-59
2021/09/23 14:20:42;;;;;;;7.25;5.05;;;;;;;;;;5055905;28;20466;-49
2021/09/23 14:23:08;;;;;;;28.83;14.88;;;;;;;;;;5055890;28;20392;-59
2021/09/23 14:25:34;;;;;;;29.00;9.00;;;;;;;;;;5055647;28;20025;-58
2021/09/23 14:28:07;;;;;;;35.45;10.10;;;;;;;;;;5054867;28;20374;-58
2021/09/23 14:30:33;;;;;;;8.88;4.05;;;;;;;;;;5054050;28;20039;-57
2021/09/23 14:33:02;;;;;;;17.85;4.55;;;;;;;;;;5054644;28;20405;-57